sensor_id;sensor_type;location;lat;lon;timestamp;P1;durP1;ratioP1;P2;durP2;ratioP2
10890;SDS011;5498;50.928;11.598;2022-12-07T00:02:38;5.53;;;3.77;;
10890;SDS011;5498;50.928;11.598;2022-12-07T00:05:40;4.87;;;3.20;;
10890;SDS011;5498;50.928;11.598;2022-12-07T00:08:43;4.87;;;3.60;;
10890;SDS011;5498;50.928;11.598;2022-12-07T00:11:48;5.17;;;3.43;;
10890;SDS011;5498;50.928;11.598;2022-12-07T00:14:53;7.03;;;3.23;;
10890;SDS011;5498;50.928;11.598;2022-12-07T00:17:55;4.77;;;3.03;;
10890;SDS011;5498;50.928;11.598;2022-12-07T00:21:00;4.73;;;3.10;;
10890;SDS011;5498;50.928;11.598;2022-12-07T00:24:04;7.70;;;3.83;;
10890;SDS011;5498;50.928;11.598;2022-12-07T00:27:07;4.40;;;2.73;;
10890;SDS011;5498;50.928;11.598;2022-12-07T00:30:10;5.93;;;3.67;;
10890;SDS011;5498;50.928;11.598;2022-12-07T00:33:13;4.40;;;2.93;;
10890;SDS011;5498;50.928;11.598;2022-12-07T00:36:19;6.60;;;3.07;;
10890;SDS011;5498;50.928;11.598;2022-12-07T00:39:22;5.97;;;3.23;;
10890;SDS011;5498;50.928;11.598;2022-12-07T00:42:24;9.10;;;2.93;;
10890;SDS011;5498;50.928;11.598;2022-12-07T00:45:28;4.03;;;2.87;;
10890;SDS011;5498;50.928;11.598;2022-12-07T00:48:30;4.13;;;2.70;;
10890;SDS011;5498;50.928;11.598;2022-12-07T00:51:32;6.60;;;3.53;;
10890;SDS011;5498;50.928;11.598;2022-12-07T00:54:34;4.90;;;3.20;;
10890;SDS011;5498;50.928;11.598;2022-12-07T00:57:36;5.63;;;3.57;;
10890;SDS011;5498;50.928;11.598;2022-12-07T01:00:40;5.27;;;3.10;;
10890;SDS011;5498;50.928;11.598;2022-12-07T01:03:43;5.60;;;3.57;;
10890;SDS011;5498;50.928;11.598;2022-12-07T01:06:46;5.33;;;3.27;;
10890;SDS011;5498;50.928;11.598;2022-12-07T01:09:47;4.63;;;3.10;;
10890;SDS011;5498;50.928;11.598;2022-12-07T01:12:50;3.77;;;2.53;;
10890;SDS011;5498;50.928;11.598;2022-12-07T01:15:55;2.97;;;2.43;;
10890;SDS011;5498;50.928;11.598;2022-12-07T01:19:00;4.33;;;2.50;;
10890;SDS011;5498;50.928;11.598;2022-12-07T01:22:04;3.83;;;2.63;;
10890;SDS011;5498;50.928;11.598;2022-12-07T01:25:07;3.83;;;2.83;;
10890;SDS011;5498;50.928;11.598;2022-12-07T01:28:10;5.63;;;2.63;;
10890;SDS011;5498;50.928;11.598;2022-12-07T01:31:15;4.60;;;2.60;;
10890;SDS011;5498;50.928;11.598;2022-12-07T01:34:20;4.97;;;2.83;;
10890;SDS011;5498;50.928;11.598;2022-12-07T01:37:22;5.33;;;3.50;;
10890;SDS011;5498;50.928;11.598;2022-12-07T01:40:24;7.67;;;3.87;;
10890;SDS011;5498;50.928;11.598;2022-12-07T01:43:28;7.23;;;3.50;;
10890;SDS011;5498;50.928;11.598;2022-12-07T01:46:33;4.30;;;2.80;;
10890;SDS011;5498;50.928;11.598;2022-12-07T01:49:35;4.57;;;2.83;;
10890;SDS011;5498;50.928;11.598;2022-12-07T01:52:40;4.00;;;2.40;;
10890;SDS011;5498;50.928;11.598;2022-12-07T01:55:45;5.73;;;3.00;;
10890;SDS011;5498;50.928;11.598;2022-12-07T01:58:52;4.97;;;3.20;;
10890;SDS011;5498;50.928;11.598;2022-12-07T02:01:57;4.73;;;2.70;;
10890;SDS011;5498;50.928;11.598;2022-12-07T02:05:08;4.33;;;2.70;;
10890;SDS011;5498;50.928;11.598;2022-12-07T02:08:11;7.30;;;3.20;;
10890;SDS011;5498;50.928;11.598;2022-12-07T02:11:14;5.67;;;2.93;;
10890;SDS011;5498;50.928;11.598;2022-12-07T02:14:17;2.70;;;2.43;;
10890;SDS011;5498;50.928;11.598;2022-12-07T02:17:22;5.30;;;3.03;;
10890;SDS011;5498;50.928;11.598;2022-12-07T02:20:30;4.57;;;2.60;;
10890;SDS011;5498;50.928;11.598;2022-12-07T02:23:47;3.10;;;2.40;;
10890;SDS011;5498;50.928;11.598;2022-12-07T02:27:17;3.50;;;2.80;;
10890;SDS011;5498;50.928;11.598;2022-12-07T02:30:44;4.47;;;2.60;;
10890;SDS011;5498;50.928;11.598;2022-12-07T02:33:51;3.30;;;2.30;;
10890;SDS011;5498;50.928;11.598;2022-12-07T02:37:00;11.03;;;2.80;;
10890;SDS011;5498;50.928;11.598;2022-12-07T02:40:10;3.67;;;2.60;;
10890;SDS011;5498;50.928;11.598;2022-12-07T02:43:19;5.13;;;2.60;;
10890;SDS011;5498;50.928;11.598;2022-12-07T02:46:29;2.93;;;1.97;;
10890;SDS011;5498;50.928;11.598;2022-12-07T02:49:35;4.70;;;2.37;;
10890;SDS011;5498;50.928;11.598;2022-12-07T02:52:38;6.77;;;2.73;;
10890;SDS011;5498;50.928;11.598;2022-12-07T02:55:40;4.83;;;2.70;;
10890;SDS011;5498;50.928;11.598;2022-12-07T02:58:47;4.10;;;2.63;;
10890;SDS011;5498;50.928;11.598;2022-12-07T03:01:59;4.60;;;2.60;;
10890;SDS011;5498;50.928;11.598;2022-12-07T03:05:27;2.83;;;2.37;;
10890;SDS011;5498;50.928;11.598;2022-12-07T03:08:51;2.97;;;2.37;;
10890;SDS011;5498;50.928;11.598;2022-12-07T03:12:05;3.60;;;2.50;;
10890;SDS011;5498;50.928;11.598;2022-12-07T03:15:15;4.23;;;2.73;;
10890;SDS011;5498;50.928;11.598;2022-12-07T03:18:27;4.17;;;2.37;;
10890;SDS011;5498;50.928;11.598;2022-12-07T03:21:33;3.83;;;2.50;;
10890;SDS011;5498;50.928;11.598;2022-12-07T03:24:39;5.27;;;2.50;;
10890;SDS011;5498;50.928;11.598;2022-12-07T03:27:48;3.53;;;2.77;;
10890;SDS011;5498;50.928;11.598;2022-12-07T03:30:56;5.20;;;2.70;;
10890;SDS011;5498;50.928;11.598;2022-12-07T03:34:07;10.63;;;2.57;;
10890;SDS011;5498;50.928;11.598;2022-12-07T03:37:15;6.20;;;2.50;;
10890;SDS011;5498;50.928;11.598;2022-12-07T03:40:26;3.60;;;2.33;;
10890;SDS011;5498;50.928;11.598;2022-12-07T03:43:34;3.87;;;2.27;;
10890;SDS011;5498;50.928;11.598;2022-12-07T03:46:40;3.43;;;2.40;;
10890;SDS011;5498;50.928;11.598;2022-12-07T03:49:51;3.10;;;2.20;;
10890;SDS011;5498;50.928;11.598;2022-12-07T03:52:59;3.03;;;2.27;;
10890;SDS011;5498;50.928;11.598;2022-12-07T03:56:07;6.03;;;2.73;;
10890;SDS011;5498;50.928;11.598;2022-12-07T03:59:11;5.37;;;2.50;;
10890;SDS011;5498;50.928;11.598;2022-12-07T04:02:14;5.20;;;2.20;;
10890;SDS011;5498;50.928;11.598;2022-12-07T04:05:19;4.17;;;2.73;;
10890;SDS011;5498;50.928;11.598;2022-12-07T04:08:21;4.80;;;2.80;;
10890;SDS011;5498;50.928;11.598;2022-12-07T04:11:23;3.57;;;2.40;;
10890;SDS011;5498;50.928;11.598;2022-12-07T04:14:25;6.77;;;2.37;;
10890;SDS011;5498;50.928;11.598;2022-12-07T04:17:27;3.57;;;2.47;;
10890;SDS011;5498;50.928;11.598;2022-12-07T04:20:30;3.70;;;2.53;;
10890;SDS011;5498;50.928;11.598;2022-12-07T04:23:32;4.27;;;2.40;;
10890;SDS011;5498;50.928;11.598;2022-12-07T04:26:35;7.30;;;3.00;;
10890;SDS011;5498;50.928;11.598;2022-12-07T04:29:37;3.07;;;2.73;;
10890;SDS011;5498;50.928;11.598;2022-12-07T04:32:39;4.03;;;3.27;;
10890;SDS011;5498;50.928;11.598;2022-12-07T04:35:42;6.27;;;3.63;;
10890;SDS011;5498;50.928;11.598;2022-12-07T04:38:45;3.57;;;2.83;;
10890;SDS011;5498;50.928;11.598;2022-12-07T04:41:47;4.20;;;3.00;;
10890;SDS011;5498;50.928;11.598;2022-12-07T04:44:50;6.17;;;3.10;;
10890;SDS011;5498;50.928;11.598;2022-12-07T04:47:52;6.23;;;4.10;;
10890;SDS011;5498;50.928;11.598;2022-12-07T04:50:55;5.07;;;3.03;;
10890;SDS011;5498;50.928;11.598;2022-12-07T04:53:57;4.80;;;3.60;;
10890;SDS011;5498;50.928;11.598;2022-12-07T04:57:00;4.77;;;3.40;;
10890;SDS011;5498;50.928;11.598;2022-12-07T05:00:02;3.83;;;2.87;;
10890;SDS011;5498;50.928;11.598;2022-12-07T05:03:05;3.93;;;3.20;;
10890;SDS011;5498;50.928;11.598;2022-12-07T05:06:09;6.33;;;3.50;;
10890;SDS011;5498;50.928;11.598;2022-12-07T05:09:12;3.97;;;2.93;;
10890;SDS011;5498;50.928;11.598;2022-12-07T05:12:14;4.97;;;3.33;;
10890;SDS011;5498;50.928;11.598;2022-12-07T05:15:16;5.47;;;3.90;;
10890;SDS011;5498;50.928;11.598;2022-12-07T05:18:18;5.57;;;3.83;;
10890;SDS011;5498;50.928;11.598;2022-12-07T05:21:22;3.90;;;3.20;;
10890;SDS011;5498;50.928;11.598;2022-12-07T05:24:26;6.70;;;3.43;;
10890;SDS011;5498;50.928;11.598;2022-12-07T05:27:28;5.20;;;3.17;;
10890;SDS011;5498;50.928;11.598;2022-12-07T05:30:31;5.53;;;3.63;;
10890;SDS011;5498;50.928;11.598;2022-12-07T05:33:33;3.63;;;3.07;;
10890;SDS011;5498;50.928;11.598;2022-12-07T05:36:37;6.80;;;3.63;;
10890;SDS011;5498;50.928;11.598;2022-12-07T05:39:39;6.20;;;3.50;;
10890;SDS011;5498;50.928;11.598;2022-12-07T05:42:42;5.03;;;3.50;;
10890;SDS011;5498;50.928;11.598;2022-12-07T05:45:44;6.43;;;3.50;;
10890;SDS011;5498;50.928;11.598;2022-12-07T05:48:46;5.07;;;3.47;;
10890;SDS011;5498;50.928;11.598;2022-12-07T05:51:50;7.67;;;4.07;;
10890;SDS011;5498;50.928;11.598;2022-12-07T05:54:52;5.60;;;3.73;;
10890;SDS011;5498;50.928;11.598;2022-12-07T05:57:54;6.47;;;4.50;;
10890;SDS011;5498;50.928;11.598;2022-12-07T06:01:16;7.17;;;4.67;;
10890;SDS011;5498;50.928;11.598;2022-12-07T06:04:18;5.40;;;3.50;;
10890;SDS011;5498;50.928;11.598;2022-12-07T06:07:22;6.73;;;4.13;;
10890;SDS011;5498;50.928;11.598;2022-12-07T06:10:24;8.60;;;5.30;;
10890;SDS011;5498;50.928;11.598;2022-12-07T06:13:26;7.90;;;4.93;;
10890;SDS011;5498;50.928;11.598;2022-12-07T06:16:27;6.07;;;4.00;;
10890;SDS011;5498;50.928;11.598;2022-12-07T06:19:29;7.47;;;4.90;;
10890;SDS011;5498;50.928;11.598;2022-12-07T06:22:33;5.80;;;4.23;;
10890;SDS011;5498;50.928;11.598;2022-12-07T06:25:35;6.90;;;4.80;;
10890;SDS011;5498;50.928;11.598;2022-12-07T06:28:36;8.07;;;5.50;;
10890;SDS011;5498;50.928;11.598;2022-12-07T06:31:39;8.10;;;5.83;;
10890;SDS011;5498;50.928;11.598;2022-12-07T06:34:41;7.83;;;4.70;;
10890;SDS011;5498;50.928;11.598;2022-12-07T06:37:44;6.20;;;4.33;;
10890;SDS011;5498;50.928;11.598;2022-12-07T06:40:47;7.50;;;5.30;;
10890;SDS011;5498;50.928;11.598;2022-12-07T06:43:49;8.67;;;4.23;;
10890;SDS011;5498;50.928;11.598;2022-12-07T06:46:52;7.83;;;4.63;;
10890;SDS011;5498;50.928;11.598;2022-12-07T06:49:54;8.87;;;4.97;;
10890;SDS011;5498;50.928;11.598;2022-12-07T06:52:58;9.77;;;5.90;;
10890;SDS011;5498;50.928;11.598;2022-12-07T06:56:00;8.87;;;6.10;;
10890;SDS011;5498;50.928;11.598;2022-12-07T06:59:02;7.57;;;5.67;;
10890;SDS011;5498;50.928;11.598;2022-12-07T07:02:05;11.47;;;6.40;;
10890;SDS011;5498;50.928;11.598;2022-12-07T07:05:08;9.20;;;5.60;;
10890;SDS011;5498;50.928;11.598;2022-12-07T07:08:12;10.83;;;5.70;;
10890;SDS011;5498;50.928;11.598;2022-12-07T07:11:14;10.57;;;6.63;;
10890;SDS011;5498;50.928;11.598;2022-12-07T07:14:16;9.37;;;6.40;;
10890;SDS011;5498;50.928;11.598;2022-12-07T07:17:19;13.63;;;6.17;;
10890;SDS011;5498;50.928;11.598;2022-12-07T07:20:21;11.53;;;6.50;;
10890;SDS011;5498;50.928;11.598;2022-12-07T07:23:24;15.47;;;7.70;;
10890;SDS011;5498;50.928;11.598;2022-12-07T07:26:26;13.13;;;6.50;;
10890;SDS011;5498;50.928;11.598;2022-12-07T07:29:28;11.77;;;7.10;;
10890;SDS011;5498;50.928;11.598;2022-12-07T07:32:30;13.27;;;6.83;;
10890;SDS011;5498;50.928;11.598;2022-12-07T07:35:33;11.63;;;7.33;;
10890;SDS011;5498;50.928;11.598;2022-12-07T07:38:37;10.30;;;6.27;;
10890;SDS011;5498;50.928;11.598;2022-12-07T07:41:39;9.67;;;6.10;;
10890;SDS011;5498;50.928;11.598;2022-12-07T07:44:41;16.63;;;5.77;;
10890;SDS011;5498;50.928;11.598;2022-12-07T07:47:43;21.47;;;7.27;;
10890;SDS011;5498;50.928;11.598;2022-12-07T07:50:45;10.70;;;5.63;;
10890;SDS011;5498;50.928;11.598;2022-12-07T07:53:49;12.43;;;6.13;;
10890;SDS011;5498;50.928;11.598;2022-12-07T07:56:51;10.87;;;5.53;;
10890;SDS011;5498;50.928;11.598;2022-12-07T07:59:53;12.30;;;5.23;;
10890;SDS011;5498;50.928;11.598;2022-12-07T08:02:56;7.90;;;4.83;;
10890;SDS011;5498;50.928;11.598;2022-12-07T08:05:57;8.53;;;4.93;;
10890;SDS011;5498;50.928;11.598;2022-12-07T08:09:01;7.67;;;5.00;;
10890;SDS011;5498;50.928;11.598;2022-12-07T08:12:05;9.53;;;4.13;;
10890;SDS011;5498;50.928;11.598;2022-12-07T08:15:08;10.47;;;5.33;;
10890;SDS011;5498;50.928;11.598;2022-12-07T08:18:11;11.97;;;4.77;;
10890;SDS011;5498;50.928;11.598;2022-12-07T08:21:15;7.23;;;4.87;;
10890;SDS011;5498;50.928;11.598;2022-12-07T08:24:18;8.17;;;4.87;;
10890;SDS011;5498;50.928;11.598;2022-12-07T08:27:20;13.37;;;5.67;;
10890;SDS011;5498;50.928;11.598;2022-12-07T08:30:27;12.60;;;5.87;;
10890;SDS011;5498;50.928;11.598;2022-12-07T08:33:30;11.77;;;5.97;;
10890;SDS011;5498;50.928;11.598;2022-12-07T08:36:32;7.60;;;4.90;;
10890;SDS011;5498;50.928;11.598;2022-12-07T08:39:35;10.73;;;5.07;;
10890;SDS011;5498;50.928;11.598;2022-12-07T08:42:38;9.37;;;4.83;;
10890;SDS011;5498;50.928;11.598;2022-12-07T08:45:40;6.47;;;4.30;;
10890;SDS011;5498;50.928;11.598;2022-12-07T08:48:43;6.20;;;3.83;;
10890;SDS011;5498;50.928;11.598;2022-12-07T08:51:52;7.43;;;4.70;;
10890;SDS011;5498;50.928;11.598;2022-12-07T08:54:58;8.60;;;4.90;;
10890;SDS011;5498;50.928;11.598;2022-12-07T08:58:01;11.23;;;4.90;;
10890;SDS011;5498;50.928;11.598;2022-12-07T09:01:05;14.23;;;5.47;;
10890;SDS011;5498;50.928;11.598;2022-12-07T09:04:07;7.27;;;4.93;;
10890;SDS011;5498;50.928;11.598;2022-12-07T09:07:09;10.37;;;5.23;;
10890;SDS011;5498;50.928;11.598;2022-12-07T09:10:12;8.83;;;5.80;;
10890;SDS011;5498;50.928;11.598;2022-12-07T09:13:15;7.90;;;3.93;;
10890;SDS011;5498;50.928;11.598;2022-12-07T09:16:17;10.43;;;4.80;;
10890;SDS011;5498;50.928;11.598;2022-12-07T09:19:19;10.60;;;4.87;;
10890;SDS011;5498;50.928;11.598;2022-12-07T09:22:21;4.73;;;3.13;;
10890;SDS011;5498;50.928;11.598;2022-12-07T09:25:24;9.07;;;4.23;;
10890;SDS011;5498;50.928;11.598;2022-12-07T09:28:27;8.33;;;4.10;;
10890;SDS011;5498;50.928;11.598;2022-12-07T09:31:29;10.10;;;4.73;;
10890;SDS011;5498;50.928;11.598;2022-12-07T09:34:31;7.67;;;3.77;;
10890;SDS011;5498;50.928;11.598;2022-12-07T09:37:33;5.33;;;3.47;;
10890;SDS011;5498;50.928;11.598;2022-12-07T09:40:37;7.37;;;3.87;;
10890;SDS011;5498;50.928;11.598;2022-12-07T09:43:39;9.67;;;4.13;;
10890;SDS011;5498;50.928;11.598;2022-12-07T09:46:42;5.77;;;3.33;;
10890;SDS011;5498;50.928;11.598;2022-12-07T09:49:46;7.67;;;4.27;;
10890;SDS011;5498;50.928;11.598;2022-12-07T09:52:48;11.90;;;4.40;;
10890;SDS011;5498;50.928;11.598;2022-12-07T09:55:53;7.40;;;3.23;;
10890;SDS011;5498;50.928;11.598;2022-12-07T09:58:58;5.37;;;3.67;;
10890;SDS011;5498;50.928;11.598;2022-12-07T10:02:19;7.03;;;3.50;;
10890;SDS011;5498;50.928;11.598;2022-12-07T10:05:35;8.73;;;2.63;;
10890;SDS011;5498;50.928;11.598;2022-12-07T10:08:41;8.17;;;2.90;;
10890;SDS011;5498;50.928;11.598;2022-12-07T10:12:01;10.07;;;3.30;;
10890;SDS011;5498;50.928;11.598;2022-12-07T10:15:06;7.10;;;3.33;;
10890;SDS011;5498;50.928;11.598;2022-12-07T10:18:17;6.10;;;3.43;;
10890;SDS011;5498;50.928;11.598;2022-12-07T10:21:26;4.23;;;2.17;;
10890;SDS011;5498;50.928;11.598;2022-12-07T10:24:29;9.27;;;2.50;;
10890;SDS011;5498;50.928;11.598;2022-12-07T10:27:32;3.33;;;2.03;;
10890;SDS011;5498;50.928;11.598;2022-12-07T10:30:45;5.10;;;2.47;;
10890;SDS011;5498;50.928;11.598;2022-12-07T10:33:50;12.47;;;2.40;;
10890;SDS011;5498;50.928;11.598;2022-12-07T10:37:06;2.70;;;1.70;;
10890;SDS011;5498;50.928;11.598;2022-12-07T10:40:27;4.73;;;1.93;;
10890;SDS011;5498;50.928;11.598;2022-12-07T10:43:34;2.10;;;1.60;;
10890;SDS011;5498;50.928;11.598;2022-12-07T10:50:18;5.57;;;2.20;;
10890;SDS011;5498;50.928;11.598;2022-12-07T10:53:44;7.07;;;1.80;;
10890;SDS011;5498;50.928;11.598;2022-12-07T10:56:59;3.67;;;2.10;;
10890;SDS011;5498;50.928;11.598;2022-12-07T11:00:34;4.13;;;2.00;;
10890;SDS011;5498;50.928;11.598;2022-12-07T11:03:47;7.97;;;2.00;;
10890;SDS011;5498;50.928;11.598;2022-12-07T11:07:10;1.57;;;1.40;;
10890;SDS011;5498;50.928;11.598;2022-12-07T11:10:22;5.03;;;2.00;;
10890;SDS011;5498;50.928;11.598;2022-12-07T11:13:36;3.53;;;1.80;;
10890;SDS011;5498;50.928;11.598;2022-12-07T11:16:51;4.27;;;1.63;;
10890;SDS011;5498;50.928;11.598;2022-12-07T11:20:00;6.80;;;1.80;;
10890;SDS011;5498;50.928;11.598;2022-12-07T11:23:18;3.47;;;1.50;;
10890;SDS011;5498;50.928;11.598;2022-12-07T11:26:47;2.50;;;1.50;;
10890;SDS011;5498;50.928;11.598;2022-12-07T11:30:11;4.73;;;1.37;;
10890;SDS011;5498;50.928;11.598;2022-12-07T11:33:20;5.63;;;1.93;;
10890;SDS011;5498;50.928;11.598;2022-12-07T11:36:36;4.77;;;1.97;;
10890;SDS011;5498;50.928;11.598;2022-12-07T11:39:43;2.37;;;1.70;;
10890;SDS011;5498;50.928;11.598;2022-12-07T11:42:50;2.77;;;1.80;;
10890;SDS011;5498;50.928;11.598;2022-12-07T11:45:59;5.03;;;1.87;;
10890;SDS011;5498;50.928;11.598;2022-12-07T11:49:10;3.20;;;1.47;;
10890;SDS011;5498;50.928;11.598;2022-12-07T11:52:18;2.97;;;1.47;;
10890;SDS011;5498;50.928;11.598;2022-12-07T11:55:29;3.70;;;1.57;;
10890;SDS011;5498;50.928;11.598;2022-12-07T11:58:44;4.00;;;1.30;;
10890;SDS011;5498;50.928;11.598;2022-12-07T12:01:53;6.40;;;1.97;;
10890;SDS011;5498;50.928;11.598;2022-12-07T12:05:02;4.47;;;1.63;;
10890;SDS011;5498;50.928;11.598;2022-12-07T12:08:15;9.00;;;1.70;;
10890;SDS011;5498;50.928;11.598;2022-12-07T12:11:30;3.87;;;1.53;;
10890;SDS011;5498;50.928;11.598;2022-12-07T12:14:53;2.13;;;1.20;;
10890;SDS011;5498;50.928;11.598;2022-12-07T12:18:19;1.83;;;1.40;;
10890;SDS011;5498;50.928;11.598;2022-12-07T12:21:47;1.37;;;1.00;;
10890;SDS011;5498;50.928;11.598;2022-12-07T12:24:56;7.57;;;1.03;;
10890;SDS011;5498;50.928;11.598;2022-12-07T12:28:00;3.43;;;1.80;;
10890;SDS011;5498;50.928;11.598;2022-12-07T12:31:06;6.03;;;1.37;;
10890;SDS011;5498;50.928;11.598;2022-12-07T12:34:29;3.93;;;1.20;;
10890;SDS011;5498;50.928;11.598;2022-12-07T12:37:41;3.97;;;1.10;;
10890;SDS011;5498;50.928;11.598;2022-12-07T12:40:45;3.93;;;1.30;;
10890;SDS011;5498;50.928;11.598;2022-12-07T12:43:50;2.03;;;1.47;;
10890;SDS011;5498;50.928;11.598;2022-12-07T12:46:53;1.83;;;1.30;;
10890;SDS011;5498;50.928;11.598;2022-12-07T12:53:21;2.93;;;1.30;;
10890;SDS011;5498;50.928;11.598;2022-12-07T12:56:33;2.90;;;1.33;;
10890;SDS011;5498;50.928;11.598;2022-12-07T12:59:41;3.17;;;1.30;;
10890;SDS011;5498;50.928;11.598;2022-12-07T13:02:58;2.73;;;1.90;;
10890;SDS011;5498;50.928;11.598;2022-12-07T13:06:17;5.53;;;1.70;;
10890;SDS011;5498;50.928;11.598;2022-12-07T13:09:24;2.17;;;1.23;;
10890;SDS011;5498;50.928;11.598;2022-12-07T13:12:29;1.70;;;1.30;;
10890;SDS011;5498;50.928;11.598;2022-12-07T13:15:34;5.03;;;1.40;;
10890;SDS011;5498;50.928;11.598;2022-12-07T13:18:38;1.57;;;1.40;;
10890;SDS011;5498;50.928;11.598;2022-12-07T13:21:41;1.57;;;1.30;;
10890;SDS011;5498;50.928;11.598;2022-12-07T13:24:47;4.37;;;1.67;;
10890;SDS011;5498;50.928;11.598;2022-12-07T13:27:51;4.37;;;2.40;;
10890;SDS011;5498;50.928;11.598;2022-12-07T13:34:34;5.20;;;2.80;;
10890;SDS011;5498;50.928;11.598;2022-12-07T13:37:38;5.30;;;2.40;;
10890;SDS011;5498;50.928;11.598;2022-12-07T13:40:42;2.73;;;2.00;;
10890;SDS011;5498;50.928;11.598;2022-12-07T13:43:45;1.60;;;1.50;;
10890;SDS011;5498;50.928;11.598;2022-12-07T13:46:53;5.93;;;2.23;;
10890;SDS011;5498;50.928;11.598;2022-12-07T13:50:15;3.77;;;2.77;;
10890;SDS011;5498;50.928;11.598;2022-12-07T13:53:25;7.07;;;3.10;;
10890;SDS011;5498;50.928;11.598;2022-12-07T13:56:33;7.20;;;3.00;;
10890;SDS011;5498;50.928;11.598;2022-12-07T13:59:36;4.10;;;2.23;;
10890;SDS011;5498;50.928;11.598;2022-12-07T14:02:53;5.67;;;2.80;;
10890;SDS011;5498;50.928;11.598;2022-12-07T14:06:04;7.10;;;2.30;;
10890;SDS011;5498;50.928;11.598;2022-12-07T14:09:20;5.13;;;2.10;;
10890;SDS011;5498;50.928;11.598;2022-12-07T14:12:26;9.23;;;2.53;;
10890;SDS011;5498;50.928;11.598;2022-12-07T14:15:30;4.20;;;1.80;;
10890;SDS011;5498;50.928;11.598;2022-12-07T14:18:36;2.07;;;1.40;;
10890;SDS011;5498;50.928;11.598;2022-12-07T14:21:41;3.37;;;1.70;;
10890;SDS011;5498;50.928;11.598;2022-12-07T14:24:43;3.83;;;1.87;;
10890;SDS011;5498;50.928;11.598;2022-12-07T14:27:55;2.60;;;1.17;;
10890;SDS011;5498;50.928;11.598;2022-12-07T14:30:58;5.53;;;1.90;;
10890;SDS011;5498;50.928;11.598;2022-12-07T14:34:02;4.43;;;2.10;;
10890;SDS011;5498;50.928;11.598;2022-12-07T14:37:06;7.70;;;2.07;;
10890;SDS011;5498;50.928;11.598;2022-12-07T14:40:12;2.97;;;1.37;;
10890;SDS011;5498;50.928;11.598;2022-12-07T14:43:17;5.87;;;2.40;;
10890;SDS011;5498;50.928;11.598;2022-12-07T14:46:21;6.83;;;2.60;;
10890;SDS011;5498;50.928;11.598;2022-12-07T14:49:23;7.70;;;2.17;;
10890;SDS011;5498;50.928;11.598;2022-12-07T14:52:27;3.57;;;2.00;;
10890;SDS011;5498;50.928;11.598;2022-12-07T14:55:31;5.73;;;2.13;;
10890;SDS011;5498;50.928;11.598;2022-12-07T14:58:34;7.00;;;2.20;;
10890;SDS011;5498;50.928;11.598;2022-12-07T15:01:37;5.70;;;2.23;;
10890;SDS011;5498;50.928;11.598;2022-12-07T15:04:39;6.40;;;2.90;;
10890;SDS011;5498;50.928;11.598;2022-12-07T15:07:42;2.23;;;1.77;;
10890;SDS011;5498;50.928;11.598;2022-12-07T15:10:45;5.40;;;2.50;;
10890;SDS011;5498;50.928;11.598;2022-12-07T15:13:48;17.00;;;6.63;;
10890;SDS011;5498;50.928;11.598;2022-12-07T15:17:09;6.67;;;4.27;;
10890;SDS011;5498;50.928;11.598;2022-12-07T15:20:14;14.37;;;8.03;;
10890;SDS011;5498;50.928;11.598;2022-12-07T15:23:17;6.00;;;3.23;;
10890;SDS011;5498;50.928;11.598;2022-12-07T15:26:19;2.00;;;1.47;;
10890;SDS011;5498;50.928;11.598;2022-12-07T15:29:23;6.73;;;2.80;;
10890;SDS011;5498;50.928;11.598;2022-12-07T15:32:25;8.73;;;2.77;;
10890;SDS011;5498;50.928;11.598;2022-12-07T15:35:27;6.77;;;3.30;;
10890;SDS011;5498;50.928;11.598;2022-12-07T15:38:29;4.80;;;2.23;;
10890;SDS011;5498;50.928;11.598;2022-12-07T15:41:31;3.27;;;1.67;;
10890;SDS011;5498;50.928;11.598;2022-12-07T15:44:34;5.87;;;1.83;;
10890;SDS011;5498;50.928;11.598;2022-12-07T15:47:54;2.73;;;1.50;;
10890;SDS011;5498;50.928;11.598;2022-12-07T15:51:01;2.77;;;1.83;;
10890;SDS011;5498;50.928;11.598;2022-12-07T15:54:04;4.07;;;1.83;;
10890;SDS011;5498;50.928;11.598;2022-12-07T15:57:06;3.20;;;1.80;;
10890;SDS011;5498;50.928;11.598;2022-12-07T16:00:11;2.63;;;1.90;;
10890;SDS011;5498;50.928;11.598;2022-12-07T16:03:14;4.83;;;1.47;;
10890;SDS011;5498;50.928;11.598;2022-12-07T16:06:16;7.83;;;1.63;;
10890;SDS011;5498;50.928;11.598;2022-12-07T16:09:19;3.77;;;1.60;;
10890;SDS011;5498;50.928;11.598;2022-12-07T16:12:21;3.53;;;1.63;;
10890;SDS011;5498;50.928;11.598;2022-12-07T16:15:26;3.23;;;1.60;;
10890;SDS011;5498;50.928;11.598;2022-12-07T16:18:28;4.97;;;3.03;;
10890;SDS011;5498;50.928;11.598;2022-12-07T16:21:30;4.83;;;2.23;;
10890;SDS011;5498;50.928;11.598;2022-12-07T16:24:32;2.57;;;2.20;;
10890;SDS011;5498;50.928;11.598;2022-12-07T16:27:34;2.43;;;2.03;;
10890;SDS011;5498;50.928;11.598;2022-12-07T16:30:38;3.30;;;2.13;;
10890;SDS011;5498;50.928;11.598;2022-12-07T16:33:40;4.03;;;2.40;;
10890;SDS011;5498;50.928;11.598;2022-12-07T16:36:44;3.30;;;2.00;;
10890;SDS011;5498;50.928;11.598;2022-12-07T16:39:46;4.07;;;2.20;;
10890;SDS011;5498;50.928;11.598;2022-12-07T16:42:48;3.87;;;1.90;;
10890;SDS011;5498;50.928;11.598;2022-12-07T16:45:52;3.70;;;1.80;;
10890;SDS011;5498;50.928;11.598;2022-12-07T16:48:54;13.57;;;4.67;;
10890;SDS011;5498;50.928;11.598;2022-12-07T16:51:59;9.83;;;5.07;;
10890;SDS011;5498;50.928;11.598;2022-12-07T16:55:01;5.83;;;3.47;;
10890;SDS011;5498;50.928;11.598;2022-12-07T16:58:03;8.37;;;3.20;;
10890;SDS011;5498;50.928;11.598;2022-12-07T17:01:11;3.43;;;2.23;;
10890;SDS011;5498;50.928;11.598;2022-12-07T17:04:16;3.10;;;2.10;;
10890;SDS011;5498;50.928;11.598;2022-12-07T17:07:20;4.30;;;2.23;;
10890;SDS011;5498;50.928;11.598;2022-12-07T17:10:23;6.93;;;2.87;;
10890;SDS011;5498;50.928;11.598;2022-12-07T17:13:25;12.97;;;5.93;;
10890;SDS011;5498;50.928;11.598;2022-12-07T17:16:46;3.50;;;2.23;;
10890;SDS011;5498;50.928;11.598;2022-12-07T17:19:49;4.20;;;2.60;;
10890;SDS011;5498;50.928;11.598;2022-12-07T17:22:51;5.77;;;3.10;;
10890;SDS011;5498;50.928;11.598;2022-12-07T17:25:53;6.83;;;3.53;;
10890;SDS011;5498;50.928;11.598;2022-12-07T17:28:55;7.40;;;3.00;;
10890;SDS011;5498;50.928;11.598;2022-12-07T17:31:59;7.37;;;3.47;;
10890;SDS011;5498;50.928;11.598;2022-12-07T17:35:01;7.60;;;3.13;;
10890;SDS011;5498;50.928;11.598;2022-12-07T17:38:04;4.67;;;2.67;;
10890;SDS011;5498;50.928;11.598;2022-12-07T17:41:09;5.13;;;2.83;;
10890;SDS011;5498;50.928;11.598;2022-12-07T17:44:33;6.90;;;3.37;;
10890;SDS011;5498;50.928;11.598;2022-12-07T17:47:37;7.93;;;3.40;;
10890;SDS011;5498;50.928;11.598;2022-12-07T17:50:40;11.00;;;5.73;;
10890;SDS011;5498;50.928;11.598;2022-12-07T17:53:59;8.90;;;2.80;;
10890;SDS011;5498;50.928;11.598;2022-12-07T17:57:01;8.70;;;3.30;;
10890;SDS011;5498;50.928;11.598;2022-12-07T18:00:04;9.37;;;3.47;;
10890;SDS011;5498;50.928;11.598;2022-12-07T18:03:09;6.03;;;3.07;;
10890;SDS011;5498;50.928;11.598;2022-12-07T18:06:11;11.53;;;4.63;;
10890;SDS011;5498;50.928;11.598;2022-12-07T18:09:13;7.07;;;3.40;;
10890;SDS011;5498;50.928;11.598;2022-12-07T18:12:15;7.27;;;2.90;;
10890;SDS011;5498;50.928;11.598;2022-12-07T18:15:17;10.30;;;3.47;;
10890;SDS011;5498;50.928;11.598;2022-12-07T18:18:22;10.87;;;5.00;;
10890;SDS011;5498;50.928;11.598;2022-12-07T18:21:25;9.87;;;4.00;;
10890;SDS011;5498;50.928;11.598;2022-12-07T18:24:29;6.13;;;2.40;;
10890;SDS011;5498;50.928;11.598;2022-12-07T18:27:32;4.03;;;1.87;;
10890;SDS011;5498;50.928;11.598;2022-12-07T18:30:34;6.30;;;2.77;;
10890;SDS011;5498;50.928;11.598;2022-12-07T18:33:37;6.27;;;2.50;;
10890;SDS011;5498;50.928;11.598;2022-12-07T18:36:41;5.03;;;2.23;;
10890;SDS011;5498;50.928;11.598;2022-12-07T18:39:46;6.13;;;2.67;;
10890;SDS011;5498;50.928;11.598;2022-12-07T18:42:49;10.60;;;3.00;;
10890;SDS011;5498;50.928;11.598;2022-12-07T18:45:51;5.47;;;2.93;;
10890;SDS011;5498;50.928;11.598;2022-12-07T18:48:55;3.00;;;2.20;;